sensor_id;sensor_type;location;lat;lon;timestamp;P1;durP1;ratioP1;P2;durP2;ratioP2
46731;SDS011;32477;51.474;5.696;2022-12-18T00:01:04;85.63;;;28.08;;
46731;SDS011;32477;51.474;5.696;2022-12-18T00:03:38;100.70;;;30.67;;
46731;SDS011;32477;51.474;5.696;2022-12-18T00:06:03;108.80;;;30.70;;
46731;SDS011;32477;51.474;5.696;2022-12-18T00:08:29;86.20;;;29.45;;
46731;SDS011;32477;51.474;5.696;2022-12-18T00:10:55;97.60;;;31.02;;
46731;SDS011;32477;51.474;5.696;2022-12-18T00:13:27;90.57;;;28.70;;
46731;SDS011;32477;51.474;5.696;2022-12-18T00:15:53;94.20;;;29.95;;
46731;SDS011;32477;51.474;5.696;2022-12-18T00:18:19;97.78;;;29.30;;
46731;SDS011;32477;51.474;5.696;2022-12-18T00:20:44;100.07;;;30.35;;
46731;SDS011;32477;51.474;5.696;2022-12-18T00:23:10;92.53;;;28.80;;
46731;SDS011;32477;51.474;5.696;2022-12-18T00:25:36;98.35;;;28.38;;
46731;SDS011;32477;51.474;5.696;2022-12-18T00:28:02;128.73;;;31.50;;
46731;SDS011;32477;51.474;5.696;2022-12-18T00:30:29;113.10;;;30.58;;
46731;SDS011;32477;51.474;5.696;2022-12-18T00:32:55;109.90;;;29.83;;
46731;SDS011;32477;51.474;5.696;2022-12-18T00:35:20;102.50;;;29.58;;
46731;SDS011;32477;51.474;5.696;2022-12-18T00:37:46;96.40;;;32.28;;
46731;SDS011;32477;51.474;5.696;2022-12-18T00:40:12;100.40;;;29.33;;
46731;SDS011;32477;51.474;5.696;2022-12-18T00:42:38;111.82;;;30.00;;
46731;SDS011;32477;51.474;5.696;2022-12-18T00:45:26;85.95;;;27.95;;
46731;SDS011;32477;51.474;5.696;2022-12-18T00:47:53;86.20;;;28.58;;
46731;SDS011;32477;51.474;5.696;2022-12-18T00:50:19;107.00;;;29.52;;
46731;SDS011;32477;51.474;5.696;2022-12-18T00:52:45;102.07;;;28.42;;
46731;SDS011;32477;51.474;5.696;2022-12-18T00:55:11;97.20;;;29.88;;
46731;SDS011;32477;51.474;5.696;2022-12-18T00:57:37;90.50;;;26.60;;
46731;SDS011;32477;51.474;5.696;2022-12-18T01:00:04;96.47;;;28.25;;
46731;SDS011;32477;51.474;5.696;2022-12-18T01:02:30;82.72;;;28.08;;
46731;SDS011;32477;51.474;5.696;2022-12-18T01:04:56;95.97;;;27.00;;
46731;SDS011;32477;51.474;5.696;2022-12-18T01:07:22;90.70;;;26.85;;
46731;SDS011;32477;51.474;5.696;2022-12-18T01:09:47;84.57;;;24.90;;
46731;SDS011;32477;51.474;5.696;2022-12-18T01:12:13;94.70;;;27.08;;
46731;SDS011;32477;51.474;5.696;2022-12-18T01:14:39;84.97;;;26.63;;
46731;SDS011;32477;51.474;5.696;2022-12-18T01:17:04;80.80;;;25.73;;
46731;SDS011;32477;51.474;5.696;2022-12-18T01:19:30;79.47;;;25.92;;
46731;SDS011;32477;51.474;5.696;2022-12-18T01:21:55;73.13;;;26.13;;
46731;SDS011;32477;51.474;5.696;2022-12-18T01:24:21;94.07;;;24.77;;
46731;SDS011;32477;51.474;5.696;2022-12-18T01:26:47;79.45;;;24.90;;
46731;SDS011;32477;51.474;5.696;2022-12-18T01:29:13;89.13;;;28.20;;
46731;SDS011;32477;51.474;5.696;2022-12-18T01:31:38;77.03;;;23.58;;
46731;SDS011;32477;51.474;5.696;2022-12-18T01:34:04;73.90;;;24.73;;
46731;SDS011;32477;51.474;5.696;2022-12-18T01:36:31;68.82;;;23.80;;
46731;SDS011;32477;51.474;5.696;2022-12-18T01:39:02;84.78;;;23.60;;
46731;SDS011;32477;51.474;5.696;2022-12-18T01:41:31;79.20;;;22.52;;
46731;SDS011;32477;51.474;5.696;2022-12-18T01:47:26;73.65;;;22.88;;
46731;SDS011;32477;51.474;5.696;2022-12-18T01:50:10;65.87;;;24.00;;
46731;SDS011;32477;51.474;5.696;2022-12-18T01:52:36;78.07;;;22.88;;
46731;SDS011;32477;51.474;5.696;2022-12-18T01:55:03;58.83;;;22.83;;
46731;SDS011;32477;51.474;5.696;2022-12-18T01:57:31;72.25;;;22.33;;
46731;SDS011;32477;51.474;5.696;2022-12-18T01:59:59;62.53;;;22.17;;
46731;SDS011;32477;51.474;5.696;2022-12-18T02:02:26;67.43;;;22.25;;
46731;SDS011;32477;51.474;5.696;2022-12-18T02:04:53;76.70;;;22.35;;
46731;SDS011;32477;51.474;5.696;2022-12-18T02:13:24;60.50;;;19.75;;
46731;SDS011;32477;51.474;5.696;2022-12-18T02:16:05;54.03;;;20.40;;
46731;SDS011;32477;51.474;5.696;2022-12-18T02:18:34;61.47;;;20.73;;
46731;SDS011;32477;51.474;5.696;2022-12-18T02:21:15;56.20;;;20.15;;
46731;SDS011;32477;51.474;5.696;2022-12-18T02:26:37;59.50;;;20.27;;
46731;SDS011;32477;51.474;5.696;2022-12-18T02:29:25;57.08;;;19.88;;
46731;SDS011;32477;51.474;5.696;2022-12-18T02:32:05;51.17;;;19.50;;
46731;SDS011;32477;51.474;5.696;2022-12-18T02:34:35;64.45;;;20.75;;
46731;SDS011;32477;51.474;5.696;2022-12-18T02:37:04;52.55;;;18.83;;
46731;SDS011;32477;51.474;5.696;2022-12-18T02:39:34;64.43;;;20.00;;
46731;SDS011;32477;51.474;5.696;2022-12-18T02:42:02;51.80;;;20.00;;
46731;SDS011;32477;51.474;5.696;2022-12-18T02:44:32;51.08;;;18.50;;
46731;SDS011;32477;51.474;5.696;2022-12-18T02:47:00;48.22;;;18.90;;
46731;SDS011;32477;51.474;5.696;2022-12-18T02:57:33;65.63;;;19.83;;
46731;SDS011;32477;51.474;5.696;2022-12-18T03:00:09;59.90;;;20.33;;
46731;SDS011;32477;51.474;5.696;2022-12-18T03:08:11;65.65;;;19.85;;
46731;SDS011;32477;51.474;5.696;2022-12-18T03:10:42;54.10;;;18.77;;
46731;SDS011;32477;51.474;5.696;2022-12-18T03:13:23;62.72;;;19.35;;
46731;SDS011;32477;51.474;5.696;2022-12-18T03:15:53;61.50;;;19.98;;
46731;SDS011;32477;51.474;5.696;2022-12-18T03:18:23;57.92;;;19.95;;
46731;SDS011;32477;51.474;5.696;2022-12-18T03:20:54;58.70;;;18.70;;
46731;SDS011;32477;51.474;5.696;2022-12-18T03:23:25;47.20;;;17.90;;
46731;SDS011;32477;51.474;5.696;2022-12-18T03:25:55;60.33;;;19.42;;
46731;SDS011;32477;51.474;5.696;2022-12-18T03:28:25;60.63;;;19.80;;
46731;SDS011;32477;51.474;5.696;2022-12-18T03:30:56;50.03;;;18.25;;
46731;SDS011;32477;51.474;5.696;2022-12-18T03:33:25;51.83;;;19.80;;
46731;SDS011;32477;51.474;5.696;2022-12-18T03:36:19;48.92;;;17.67;;
46731;SDS011;32477;51.474;5.696;2022-12-18T03:38:45;49.13;;;19.08;;
46731;SDS011;32477;51.474;5.696;2022-12-18T03:44:13;46.60;;;17.65;;
46731;SDS011;32477;51.474;5.696;2022-12-18T03:46:55;53.50;;;20.08;;
46731;SDS011;32477;51.474;5.696;2022-12-18T03:52:25;44.75;;;16.88;;
46731;SDS011;32477;51.474;5.696;2022-12-18T03:55:03;49.25;;;16.80;;
46731;SDS011;32477;51.474;5.696;2022-12-18T03:57:32;52.10;;;19.48;;
46731;SDS011;32477;51.474;5.696;2022-12-18T04:00:00;44.95;;;18.05;;
46731;SDS011;32477;51.474;5.696;2022-12-18T04:02:32;41.03;;;16.58;;
46731;SDS011;32477;51.474;5.696;2022-12-18T04:04:59;48.92;;;17.15;;
46731;SDS011;32477;51.474;5.696;2022-12-18T04:07:29;46.95;;;16.88;;
46731;SDS011;32477;51.474;5.696;2022-12-18T04:09:56;55.67;;;19.05;;
46731;SDS011;32477;51.474;5.696;2022-12-18T04:12:24;37.28;;;17.13;;
46731;SDS011;32477;51.474;5.696;2022-12-18T04:14:54;44.08;;;18.20;;
46731;SDS011;32477;51.474;5.696;2022-12-18T04:17:20;47.60;;;17.80;;
46731;SDS011;32477;51.474;5.696;2022-12-18T04:19:46;56.13;;;18.33;;
46731;SDS011;32477;51.474;5.696;2022-12-18T04:22:11;47.08;;;17.75;;
46731;SDS011;32477;51.474;5.696;2022-12-18T04:24:37;46.88;;;16.35;;
46731;SDS011;32477;51.474;5.696;2022-12-18T04:27:03;47.30;;;18.92;;
46731;SDS011;32477;51.474;5.696;2022-12-18T04:29:29;44.08;;;17.98;;
46731;SDS011;32477;51.474;5.696;2022-12-18T04:31:55;38.67;;;17.52;;
46731;SDS011;32477;51.474;5.696;2022-12-18T04:34:20;47.30;;;17.10;;
46731;SDS011;32477;51.474;5.696;2022-12-18T04:36:46;44.47;;;16.50;;
46731;SDS011;32477;51.474;5.696;2022-12-18T04:39:12;45.08;;;16.08;;
46731;SDS011;32477;51.474;5.696;2022-12-18T04:41:38;48.10;;;16.75;;
46731;SDS011;32477;51.474;5.696;2022-12-18T04:44:04;44.38;;;16.10;;
46731;SDS011;32477;51.474;5.696;2022-12-18T04:46:30;43.35;;;16.42;;
46731;SDS011;32477;51.474;5.696;2022-12-18T04:48:56;44.90;;;16.75;;
46731;SDS011;32477;51.474;5.696;2022-12-18T04:51:21;48.75;;;18.13;;
46731;SDS011;32477;51.474;5.696;2022-12-18T04:53:47;45.58;;;17.83;;
46731;SDS011;32477;51.474;5.696;2022-12-18T04:56:14;40.22;;;17.38;;
46731;SDS011;32477;51.474;5.696;2022-12-18T04:58:41;45.85;;;17.40;;
46731;SDS011;32477;51.474;5.696;2022-12-18T05:01:07;36.35;;;16.27;;
46731;SDS011;32477;51.474;5.696;2022-12-18T05:03:34;42.42;;;17.13;;
46731;SDS011;32477;51.474;5.696;2022-12-18T05:06:00;47.20;;;16.80;;
46731;SDS011;32477;51.474;5.696;2022-12-18T05:08:26;42.47;;;16.73;;
46731;SDS011;32477;51.474;5.696;2022-12-18T05:10:58;38.35;;;15.68;;
46731;SDS011;32477;51.474;5.696;2022-12-18T05:13:25;39.58;;;17.52;;
46731;SDS011;32477;51.474;5.696;2022-12-18T05:15:51;37.47;;;14.93;;
46731;SDS011;32477;51.474;5.696;2022-12-18T05:18:17;39.88;;;16.15;;
46731;SDS011;32477;51.474;5.696;2022-12-18T05:20:43;46.47;;;16.02;;
46731;SDS011;32477;51.474;5.696;2022-12-18T05:23:09;46.00;;;17.30;;
46731;SDS011;32477;51.474;5.696;2022-12-18T05:25:34;45.50;;;16.48;;
46731;SDS011;32477;51.474;5.696;2022-12-18T05:28:00;40.67;;;16.60;;
46731;SDS011;32477;51.474;5.696;2022-12-18T05:30:26;37.65;;;16.92;;
46731;SDS011;32477;51.474;5.696;2022-12-18T05:32:52;35.47;;;14.73;;
46731;SDS011;32477;51.474;5.696;2022-12-18T05:35:18;41.47;;;16.90;;
46731;SDS011;32477;51.474;5.696;2022-12-18T05:37:44;42.22;;;15.77;;
46731;SDS011;32477;51.474;5.696;2022-12-18T05:40:10;42.63;;;16.80;;
46731;SDS011;32477;51.474;5.696;2022-12-18T05:42:36;43.85;;;17.23;;
46731;SDS011;32477;51.474;5.696;2022-12-18T05:45:02;40.75;;;17.77;;
46731;SDS011;32477;51.474;5.696;2022-12-18T05:47:29;42.33;;;16.77;;
46731;SDS011;32477;51.474;5.696;2022-12-18T05:49:55;43.00;;;17.40;;
46731;SDS011;32477;51.474;5.696;2022-12-18T05:52:21;40.55;;;17.85;;
46731;SDS011;32477;51.474;5.696;2022-12-18T05:54:46;42.35;;;16.83;;
46731;SDS011;32477;51.474;5.696;2022-12-18T05:57:12;48.17;;;17.92;;
46731;SDS011;32477;51.474;5.696;2022-12-18T05:59:38;41.80;;;16.45;;
46731;SDS011;32477;51.474;5.696;2022-12-18T06:02:03;46.95;;;16.70;;
46731;SDS011;32477;51.474;5.696;2022-12-18T06:04:29;44.60;;;16.35;;
46731;SDS011;32477;51.474;5.696;2022-12-18T06:06:55;48.42;;;18.75;;
46731;SDS011;32477;51.474;5.696;2022-12-18T06:09:20;51.20;;;18.20;;
46731;SDS011;32477;51.474;5.696;2022-12-18T06:11:46;43.15;;;17.10;;
46731;SDS011;32477;51.474;5.696;2022-12-18T06:14:12;47.50;;;17.95;;
46731;SDS011;32477;51.474;5.696;2022-12-18T06:16:38;40.92;;;17.90;;
46731;SDS011;32477;51.474;5.696;2022-12-18T06:19:04;47.97;;;16.15;;
46731;SDS011;32477;51.474;5.696;2022-12-18T06:21:31;39.40;;;16.00;;
46731;SDS011;32477;51.474;5.696;2022-12-18T06:23:57;38.67;;;16.92;;
46731;SDS011;32477;51.474;5.696;2022-12-18T06:26:23;41.97;;;17.25;;
46731;SDS011;32477;51.474;5.696;2022-12-18T06:28:49;37.30;;;16.70;;
46731;SDS011;32477;51.474;5.696;2022-12-18T06:31:15;51.55;;;17.98;;
46731;SDS011;32477;51.474;5.696;2022-12-18T06:33:41;43.13;;;18.40;;
46731;SDS011;32477;51.474;5.696;2022-12-18T06:36:07;43.25;;;16.55;;
46731;SDS011;32477;51.474;5.696;2022-12-18T06:38:36;41.40;;;16.02;;
46731;SDS011;32477;51.474;5.696;2022-12-18T06:41:11;35.95;;;15.32;;
46731;SDS011;32477;51.474;5.696;2022-12-18T06:43:41;47.67;;;17.77;;
46731;SDS011;32477;51.474;5.696;2022-12-18T06:46:07;46.97;;;18.20;;
46731;SDS011;32477;51.474;5.696;2022-12-18T06:48:33;44.78;;;16.40;;
46731;SDS011;32477;51.474;5.696;2022-12-18T06:50:59;44.40;;;17.25;;
46731;SDS011;32477;51.474;5.696;2022-12-18T06:53:25;42.33;;;16.92;;
46731;SDS011;32477;51.474;5.696;2022-12-18T06:55:51;43.33;;;17.35;;
46731;SDS011;32477;51.474;5.696;2022-12-18T06:58:16;47.28;;;17.02;;
46731;SDS011;32477;51.474;5.696;2022-12-18T07:00:42;39.50;;;18.02;;
46731;SDS011;32477;51.474;5.696;2022-12-18T07:03:08;45.08;;;16.38;;
46731;SDS011;32477;51.474;5.696;2022-12-18T07:05:34;44.58;;;17.08;;
46731;SDS011;32477;51.474;5.696;2022-12-18T07:08:04;43.45;;;18.38;;
46731;SDS011;32477;51.474;5.696;2022-12-18T07:10:29;46.78;;;17.90;;
46731;SDS011;32477;51.474;5.696;2022-12-18T07:12:55;39.53;;;16.88;;
46731;SDS011;32477;51.474;5.696;2022-12-18T07:15:21;40.55;;;16.05;;
46731;SDS011;32477;51.474;5.696;2022-12-18T07:17:46;42.35;;;17.20;;
46731;SDS011;32477;51.474;5.696;2022-12-18T07:20:12;39.00;;;16.13;;
46731;SDS011;32477;51.474;5.696;2022-12-18T07:22:38;49.70;;;16.45;;
46731;SDS011;32477;51.474;5.696;2022-12-18T07:25:04;40.72;;;17.73;;
46731;SDS011;32477;51.474;5.696;2022-12-18T07:27:30;43.75;;;16.58;;
46731;SDS011;32477;51.474;5.696;2022-12-18T07:29:55;59.92;;;17.55;;
46731;SDS011;32477;51.474;5.696;2022-12-18T07:32:21;46.85;;;17.75;;
46731;SDS011;32477;51.474;5.696;2022-12-18T07:34:46;38.80;;;17.38;;
46731;SDS011;32477;51.474;5.696;2022-12-18T07:37:12;48.80;;;17.75;;
46731;SDS011;32477;51.474;5.696;2022-12-18T07:39:38;46.80;;;17.77;;
46731;SDS011;32477;51.474;5.696;2022-12-18T07:42:03;40.53;;;16.52;;
46731;SDS011;32477;51.474;5.696;2022-12-18T07:44:48;44.15;;;17.95;;
46731;SDS011;32477;51.474;5.696;2022-12-18T07:47:13;42.67;;;16.55;;
46731;SDS011;32477;51.474;5.696;2022-12-18T07:49:39;46.45;;;17.67;;
46731;SDS011;32477;51.474;5.696;2022-12-18T07:52:05;39.60;;;15.73;;
46731;SDS011;32477;51.474;5.696;2022-12-18T07:54:30;41.83;;;17.65;;
46731;SDS011;32477;51.474;5.696;2022-12-18T07:56:56;42.92;;;16.75;;
46731;SDS011;32477;51.474;5.696;2022-12-18T07:59:22;46.75;;;19.23;;
46731;SDS011;32477;51.474;5.696;2022-12-18T08:01:47;43.92;;;17.65;;
46731;SDS011;32477;51.474;5.696;2022-12-18T08:04:13;47.03;;;19.30;;
46731;SDS011;32477;51.474;5.696;2022-12-18T08:06:39;41.10;;;18.83;;
46731;SDS011;32477;51.474;5.696;2022-12-18T08:09:04;36.88;;;15.25;;
46731;SDS011;32477;51.474;5.696;2022-12-18T08:11:30;51.80;;;17.83;;
46731;SDS011;32477;51.474;5.696;2022-12-18T08:13:56;47.13;;;18.80;;
46731;SDS011;32477;51.474;5.696;2022-12-18T08:16:23;37.63;;;16.02;;
46731;SDS011;32477;51.474;5.696;2022-12-18T08:18:49;49.85;;;19.17;;
46731;SDS011;32477;51.474;5.696;2022-12-18T08:21:21;47.45;;;18.05;;
46731;SDS011;32477;51.474;5.696;2022-12-18T08:23:49;43.17;;;17.65;;
46731;SDS011;32477;51.474;5.696;2022-12-18T08:26:16;41.20;;;18.65;;
46731;SDS011;32477;51.474;5.696;2022-12-18T08:28:42;43.92;;;17.52;;
46731;SDS011;32477;51.474;5.696;2022-12-18T08:31:08;45.08;;;19.75;;
46731;SDS011;32477;51.474;5.696;2022-12-18T08:33:34;39.53;;;17.35;;
46731;SDS011;32477;51.474;5.696;2022-12-18T08:36:03;50.72;;;17.95;;
46731;SDS011;32477;51.474;5.696;2022-12-18T08:38:29;44.72;;;18.40;;
46731;SDS011;32477;51.474;5.696;2022-12-18T08:40:59;37.90;;;15.82;;
46731;SDS011;32477;51.474;5.696;2022-12-18T08:43:29;39.88;;;17.42;;
46731;SDS011;32477;51.474;5.696;2022-12-18T08:48:41;49.95;;;17.90;;
46731;SDS011;32477;51.474;5.696;2022-12-18T08:51:07;42.80;;;16.40;;
46731;SDS011;32477;51.474;5.696;2022-12-18T08:53:34;45.05;;;17.13;;
46731;SDS011;32477;51.474;5.696;2022-12-18T08:56:00;38.55;;;18.00;;
46731;SDS011;32477;51.474;5.696;2022-12-18T08:58:26;44.63;;;18.65;;
46731;SDS011;32477;51.474;5.696;2022-12-18T09:00:52;43.25;;;17.75;;
46731;SDS011;32477;51.474;5.696;2022-12-18T09:03:18;41.70;;;18.38;;
46731;SDS011;32477;51.474;5.696;2022-12-18T09:05:47;41.78;;;17.05;;
46731;SDS011;32477;51.474;5.696;2022-12-18T09:08:13;44.38;;;20.45;;
46731;SDS011;32477;51.474;5.696;2022-12-18T09:10:46;39.65;;;17.17;;
46731;SDS011;32477;51.474;5.696;2022-12-18T09:13:14;45.80;;;17.50;;
46731;SDS011;32477;51.474;5.696;2022-12-18T09:15:47;44.40;;;19.55;;
46731;SDS011;32477;51.474;5.696;2022-12-18T09:18:15;41.72;;;18.60;;
46731;SDS011;32477;51.474;5.696;2022-12-18T09:20:42;40.63;;;17.75;;
46731;SDS011;32477;51.474;5.696;2022-12-18T09:23:09;45.28;;;19.80;;
46731;SDS011;32477;51.474;5.696;2022-12-18T09:25:35;45.65;;;17.95;;
46731;SDS011;32477;51.474;5.696;2022-12-18T09:28:03;40.47;;;18.40;;
46731;SDS011;32477;51.474;5.696;2022-12-18T09:30:30;49.17;;;19.55;;
46731;SDS011;32477;51.474;5.696;2022-12-18T09:32:58;43.33;;;19.52;;
46731;SDS011;32477;51.474;5.696;2022-12-18T09:35:24;51.03;;;18.60;;
46731;SDS011;32477;51.474;5.696;2022-12-18T09:37:50;42.25;;;17.77;;
46731;SDS011;32477;51.474;5.696;2022-12-18T09:40:16;42.75;;;17.83;;
46731;SDS011;32477;51.474;5.696;2022-12-18T09:42:57;41.90;;;19.90;;
46731;SDS011;32477;51.474;5.696;2022-12-18T09:45:25;52.75;;;18.27;;
46731;SDS011;32477;51.474;5.696;2022-12-18T09:47:52;41.65;;;17.45;;
46731;SDS011;32477;51.474;5.696;2022-12-18T09:50:24;38.13;;;17.48;;
46731;SDS011;32477;51.474;5.696;2022-12-18T09:52:55;36.53;;;17.17;;
46731;SDS011;32477;51.474;5.696;2022-12-18T09:55:42;43.65;;;17.90;;
46731;SDS011;32477;51.474;5.696;2022-12-18T10:00:55;48.10;;;16.55;;
46731;SDS011;32477;51.474;5.696;2022-12-18T10:03:21;42.13;;;17.30;;
46731;SDS011;32477;51.474;5.696;2022-12-18T10:08:23;38.22;;;17.42;;
46731;SDS011;32477;51.474;5.696;2022-12-18T10:11:25;39.75;;;17.60;;
46731;SDS011;32477;51.474;5.696;2022-12-18T10:14:00;32.45;;;16.25;;
46731;SDS011;32477;51.474;5.696;2022-12-18T10:16:54;44.05;;;16.65;;
46731;SDS011;32477;51.474;5.696;2022-12-18T10:25:24;37.75;;;16.90;;
46731;SDS011;32477;51.474;5.696;2022-12-18T10:27:52;36.95;;;16.50;;
46731;SDS011;32477;51.474;5.696;2022-12-18T10:30:23;32.33;;;16.42;;
46731;SDS011;32477;51.474;5.696;2022-12-18T10:32:49;37.40;;;16.85;;
46731;SDS011;32477;51.474;5.696;2022-12-18T10:35:22;37.35;;;16.00;;
46731;SDS011;32477;51.474;5.696;2022-12-18T10:40:27;39.15;;;16.55;;
46731;SDS011;32477;51.474;5.696;2022-12-18T10:43:10;45.33;;;16.88;;
46731;SDS011;32477;51.474;5.696;2022-12-18T10:45:37;43.38;;;16.55;;
46731;SDS011;32477;51.474;5.696;2022-12-18T10:48:03;39.10;;;15.75;;
46731;SDS011;32477;51.474;5.696;2022-12-18T10:50:34;33.20;;;16.15;;
46731;SDS011;32477;51.474;5.696;2022-12-18T10:53:03;35.35;;;16.30;;
46731;SDS011;32477;51.474;5.696;2022-12-18T10:55:31;38.00;;;16.38;;
46731;SDS011;32477;51.474;5.696;2022-12-18T10:58:13;32.92;;;15.82;;
46731;SDS011;32477;51.474;5.696;2022-12-18T11:01:02;29.40;;;15.00;;
46731;SDS011;32477;51.474;5.696;2022-12-18T11:03:39;35.83;;;15.95;;
46731;SDS011;32477;51.474;5.696;2022-12-18T11:08:35;38.42;;;15.65;;
46731;SDS011;32477;51.474;5.696;2022-12-18T11:11:02;32.67;;;16.13;;
46731;SDS011;32477;51.474;5.696;2022-12-18T11:13:32;44.45;;;14.30;;
46731;SDS011;32477;51.474;5.696;2022-12-18T11:15:58;41.83;;;15.35;;
46731;SDS011;32477;51.474;5.696;2022-12-18T11:18:28;37.67;;;15.70;;
46731;SDS011;32477;51.474;5.696;2022-12-18T11:21:09;33.92;;;15.95;;
46731;SDS011;32477;51.474;5.696;2022-12-18T11:23:36;37.78;;;16.02;;
46731;SDS011;32477;51.474;5.696;2022-12-18T11:26:13;35.28;;;15.30;;
46731;SDS011;32477;51.474;5.696;2022-12-18T11:28:40;41.40;;;16.60;;
46731;SDS011;32477;51.474;5.696;2022-12-18T11:31:24;29.42;;;14.93;;
46731;SDS011;32477;51.474;5.696;2022-12-18T11:36:44;33.63;;;15.65;;
46731;SDS011;32477;51.474;5.696;2022-12-18T11:50:18;30.90;;;14.25;;
46731;SDS011;32477;51.474;5.696;2022-12-18T11:52:47;35.47;;;15.73;;
46731;SDS011;32477;51.474;5.696;2022-12-18T11:55:14;33.58;;;15.27;;
46731;SDS011;32477;51.474;5.696;2022-12-18T11:58:03;34.90;;;15.48;;
46731;SDS011;32477;51.474;5.696;2022-12-18T12:00:44;28.95;;;13.88;;
46731;SDS011;32477;51.474;5.696;2022-12-18T12:06:20;31.63;;;14.48;;
46731;SDS011;32477;51.474;5.696;2022-12-18T12:09:03;34.78;;;15.48;;
46731;SDS011;32477;51.474;5.696;2022-12-18T12:14:23;29.83;;;14.43;;
46731;SDS011;32477;51.474;5.696;2022-12-18T12:17:13;28.15;;;14.70;;
46731;SDS011;32477;51.474;5.696;2022-12-18T12:20:10;36.03;;;15.95;;
46731;SDS011;32477;51.474;5.696;2022-12-18T12:25:50;32.80;;;15.93;;
46731;SDS011;32477;51.474;5.696;2022-12-18T12:28:32;34.17;;;15.98;;
46731;SDS011;32477;51.474;5.696;2022-12-18T12:34:00;30.55;;;14.50;;
46731;SDS011;32477;51.474;5.696;2022-12-18T12:36:46;37.58;;;17.10;;
46731;SDS011;32477;51.474;5.696;2022-12-18T12:39:22;35.22;;;16.20;;
46731;SDS011;32477;51.474;5.696;2022-12-18T12:41:53;31.80;;;14.90;;
46731;SDS011;32477;51.474;5.696;2022-12-18T12:44:43;38.03;;;15.73;;
46731;SDS011;32477;51.474;5.696;2022-12-18T12:47:17;33.58;;;15.02;;
46731;SDS011;32477;51.474;5.696;2022-12-18T12:49:48;34.22;;;14.95;;
46731;SDS011;32477;51.474;5.696;2022-12-18T12:52:17;29.92;;;14.38;;
46731;SDS011;32477;51.474;5.696;2022-12-18T12:54:57;34.85;;;15.10;;
46731;SDS011;32477;51.474;5.696;2022-12-18T12:57:32;33.15;;;15.25;;
46731;SDS011;32477;51.474;5.696;2022-12-18T13:00:05;34.42;;;14.77;;
46731;SDS011;32477;51.474;5.696;2022-12-18T13:02:52;30.40;;;14.38;;
46731;SDS011;32477;51.474;5.696;2022-12-18T13:05:26;28.02;;;14.73;;
46731;SDS011;32477;51.474;5.696;2022-12-18T13:08:03;32.17;;;14.88;;
46731;SDS011;32477;51.474;5.696;2022-12-18T13:10:36;30.55;;;14.90;;
46731;SDS011;32477;51.474;5.696;2022-12-18T13:13:04;29.63;;;14.60;;
46731;SDS011;32477;51.474;5.696;2022-12-18T13:20:50;32.83;;;15.25;;
46731;SDS011;32477;51.474;5.696;2022-12-18T13:23:29;33.95;;;14.93;;
46731;SDS011;32477;51.474;5.696;2022-12-18T13:36:52;33.85;;;15.27;;
46731;SDS011;32477;51.474;5.696;2022-12-18T13:41:45;34.50;;;15.85;;
46731;SDS011;32477;51.474;5.696;2022-12-18T13:46:58;31.00;;;15.25;;
46731;SDS011;32477;51.474;5.696;2022-12-18T13:49:31;38.08;;;16.23;;
46731;SDS011;32477;51.474;5.696;2022-12-18T13:52:02;35.72;;;15.45;;
46731;SDS011;32477;51.474;5.696;2022-12-18T13:54:39;31.88;;;14.73;;
46731;SDS011;32477;51.474;5.696;2022-12-18T13:57:24;34.60;;;14.68;;
46731;SDS011;32477;51.474;5.696;2022-12-18T13:59:51;30.85;;;14.68;;
46731;SDS011;32477;51.474;5.696;2022-12-18T14:02:18;31.55;;;15.68;;
46731;SDS011;32477;51.474;5.696;2022-12-18T14:04:48;29.42;;;14.05;;
46731;SDS011;32477;51.474;5.696;2022-12-18T14:07:17;41.22;;;16.33;;
46731;SDS011;32477;51.474;5.696;2022-12-18T14:09:46;36.17;;;15.38;;
46731;SDS011;32477;51.474;5.696;2022-12-18T14:12:39;33.10;;;15.27;;
46731;SDS011;32477;51.474;5.696;2022-12-18T14:20:59;30.85;;;14.30;;
46731;SDS011;32477;51.474;5.696;2022-12-18T14:28:54;35.63;;;15.70;;
46731;SDS011;32477;51.474;5.696;2022-12-18T14:31:30;35.83;;;17.05;;
46731;SDS011;32477;51.474;5.696;2022-12-18T14:33:56;39.47;;;15.48;;
46731;SDS011;32477;51.474;5.696;2022-12-18T14:36:29;32.08;;;15.52;;
46731;SDS011;32477;51.474;5.696;2022-12-18T14:38:57;37.28;;;15.80;;
46731;SDS011;32477;51.474;5.696;2022-12-18T14:41:24;35.42;;;15.57;;
46731;SDS011;32477;51.474;5.696;2022-12-18T14:43:52;35.83;;;15.77;;
46731;SDS011;32477;51.474;5.696;2022-12-18T14:46:26;34.28;;;13.30;;
46731;SDS011;32477;51.474;5.696;2022-12-18T14:48:59;33.22;;;14.43;;
46731;SDS011;32477;51.474;5.696;2022-12-18T14:51:31;35.72;;;15.07;;
46731;SDS011;32477;51.474;5.696;2022-12-18T14:53:59;32.15;;;14.63;;
46731;SDS011;32477;51.474;5.696;2022-12-18T14:56:35;39.17;;;15.50;;
46731;SDS011;32477;51.474;5.696;2022-12-18T14:59:13;44.75;;;15.60;;
46731;SDS011;32477;51.474;5.696;2022-12-18T15:01:58;35.08;;;15.48;;
46731;SDS011;32477;51.474;5.696;2022-12-18T15:04:45;27.65;;;14.00;;
46731;SDS011;32477;51.474;5.696;2022-12-18T15:07:20;36.10;;;14.68;;
46731;SDS011;32477;51.474;5.696;2022-12-18T15:12:49;35.05;;;14.52;;
46731;SDS011;32477;51.474;5.696;2022-12-18T15:18:15;30.50;;;15.23;;
46731;SDS011;32477;51.474;5.696;2022-12-18T15:20:45;32.88;;;15.02;;
46731;SDS011;32477;51.474;5.696;2022-12-18T15:26:10;41.03;;;15.60;;
46731;SDS011;32477;51.474;5.696;2022-12-18T15:33:39;38.50;;;15.77;;
46731;SDS011;32477;51.474;5.696;2022-12-18T15:36:11;36.65;;;14.27;;
46731;SDS011;32477;51.474;5.696;2022-12-18T15:38:38;34.10;;;14.38;;
46731;SDS011;32477;51.474;5.696;2022-12-18T15:41:04;40.65;;;15.15;;
46731;SDS011;32477;51.474;5.696;2022-12-18T15:43:37;33.95;;;14.32;;
46731;SDS011;32477;51.474;5.696;2022-12-18T15:46:04;36.25;;;15.20;;
46731;SDS011;32477;51.474;5.696;2022-12-18T15:48:39;32.67;;;14.50;;
46731;SDS011;32477;51.474;5.696;2022-12-18T15:51:23;33.92;;;14.80;;
46731;SDS011;32477;51.474;5.696;2022-12-18T15:53:49;34.20;;;14.48;;
46731;SDS011;32477;51.474;5.696;2022-12-18T15:56:18;31.08;;;13.50;;
46731;SDS011;32477;51.474;5.696;2022-12-18T15:59:04;38.40;;;15.13;;
46731;SDS011;32477;51.474;5.696;2022-12-18T16:01:34;32.00;;;14.52;;
46731;SDS011;32477;51.474;5.696;2022-12-18T16:04:00;32.42;;;14.55;;
46731;SDS011;32477;51.474;5.696;2022-12-18T16:06:26;36.95;;;16.75;;
46731;SDS011;32477;51.474;5.696;2022-12-18T16:08:51;38.80;;;15.40;;
46731;SDS011;32477;51.474;5.696;2022-12-18T16:16:39;35.75;;;14.57;;
46731;SDS011;32477;51.474;5.696;2022-12-18T16:19:05;30.20;;;15.13;;
46731;SDS011;32477;51.474;5.696;2022-12-18T16:21:31;40.38;;;16.42;;
46731;SDS011;32477;51.474;5.696;2022-12-18T16:23:56;36.72;;;15.15;;
46731;SDS011;32477;51.474;5.696;2022-12-18T16:26:22;44.97;;;14.35;;
46731;SDS011;32477;51.474;5.696;2022-12-18T16:28:48;35.92;;;15.02;;
46731;SDS011;32477;51.474;5.696;2022-12-18T16:31:14;40.03;;;14.65;;
46731;SDS011;32477;51.474;5.696;2022-12-18T16:33:39;36.47;;;15.57;;
46731;SDS011;32477;51.474;5.696;2022-12-18T16:36:05;41.15;;;16.13;;
46731;SDS011;32477;51.474;5.696;2022-12-18T16:38:31;35.13;;;16.23;;
46731;SDS011;32477;51.474;5.696;2022-12-18T16:40:57;33.28;;;16.02;;
46731;SDS011;32477;51.474;5.696;2022-12-18T16:43:41;35.38;;;15.98;;